Time;durP1;ratioP1;P1;durP2;ratioP2;P2;SDS_P1;SDS_P2;PMS_P1;PMS_P2;Temp;Humidity;BMP_temperature;BMP_pressure;BME280_temperature;BME280_humidity;BME280_pressure;Samples;Min_cycle;Max_cycle;Signal;HPM_P1;HPM_P2
2022/03/01 00:01:10;;;;;;;7.28;1.30;;;21.00;99.90;;;;;;5029315;28;20026;-67
2022/03/01 00:03:40;;;;;;;7.38;1.25;;;21.10;99.90;;;;;;5025397;28;20331;-67
2022/03/01 00:06:07;;;;;;;9.25;1.40;;;21.10;99.90;;;;;;5029241;28;20035;-67
2022/03/01 00:08:35;;;;;;;5.15;0.70;;;21.20;99.90;;;;;;5028163;28;20057;-67
2022/03/01 00:11:02;;;;;;;17.02;2.25;;;21.10;99.90;;;;;;5026517;28;20132;-66
2022/03/01 00:13:30;;;;;;;16.27;1.33;;;21.20;99.90;;;;;;5030584;28;20104;-66
2022/03/01 00:15:57;;;;;;;13.32;1.27;;;21.20;99.90;;;;;;5032496;28;20040;-67
2022/03/01 00:18:24;;;;;;;7.53;1.27;;;21.30;99.90;;;;;;5033274;28;20052;-67
2022/03/01 00:20:51;;;;;;;14.07;1.30;;;21.40;99.90;;;;;;5031580;28;20095;-67
2022/03/01 00:23:18;;;;;;;9.63;1.20;;;21.60;99.90;;;;;;5033311;28;20053;-67
2022/03/01 00:25:46;;;;;;;12.30;1.92;;;21.70;99.90;;;;;;5032106;28;20056;-67
2022/03/01 00:28:13;;;;;;;9.80;1.92;;;21.60;99.90;;;;;;5031183;28;20503;-69
2022/03/01 00:30:40;;;;;;;10.98;1.27;;;21.40;99.90;;;;;;5030593;28;20037;-67
2022/03/01 00:33:08;;;;;;;13.55;2.53;;;21.20;99.90;;;;;;5031493;28;20531;-67
2022/03/01 00:35:35;;;;;;;7.05;0.80;;;21.20;99.90;;;;;;5033092;28;20096;-68
2022/03/01 00:38:02;;;;;;;8.20;1.35;;;21.10;99.90;;;;;;5029847;28;20033;-67
2022/03/01 00:40:29;;;;;;;10.85;1.27;;;21.20;99.90;;;;;;5022024;28;20050;-67
2022/03/01 00:42:57;;;;;;;8.88;1.40;;;21.30;99.90;;;;;;5014510;28;20026;-67
2022/03/01 00:45:24;;;;;;;11.52;1.95;;;21.50;99.90;;;;;;5032397;28;20021;-67
2022/03/01 00:47:51;;;;;;;10.35;1.40;;;21.60;99.90;;;;;;5028823;28;20049;-67
2022/03/01 00:50:19;;;;;;;18.20;1.63;;;21.60;99.90;;;;;;5030990;28;20084;-66
2022/03/01 00:52:46;;;;;;;9.20;1.65;;;21.50;99.90;;;;;;5022935;28;20537;-66
2022/03/01 00:55:13;;;;;;;10.10;1.40;;;21.60;99.90;;;;;;5025356;28;20472;-67
2022/03/01 00:57:41;;;;;;;12.02;1.42;;;21.50;99.90;;;;;;5020096;28;20029;-67
2022/03/01 01:00:10;;;;;;;14.50;1.38;;;21.40;99.90;;;;;;5032601;28;20036;-67
2022/03/01 01:02:37;;;;;;;12.25;1.63;;;21.30;99.90;;;;;;5030860;28;20096;-67
2022/03/01 01:05:05;;;;;;;5.95;0.70;;;21.20;99.90;;;;;;5025221;28;20026;-67
2022/03/01 01:07:32;;;;;;;2.53;0.57;;;21.10;99.90;;;;;;5046160;28;20087;-67
2022/03/01 01:09:59;;;;;;;6.60;1.05;;;21.00;99.90;;;;;;5032090;28;20040;-67
2022/03/01 01:12:27;;;;;;;13.77;1.52;;;21.00;99.90;;;;;;5032957;28;20096;-67
2022/03/01 01:14:54;;;;;;;10.57;1.17;;;21.10;99.90;;;;;;5031967;28;20026;-67
2022/03/01 01:17:21;;;;;;;7.63;1.33;;;21.20;99.90;;;;;;5046951;28;20049;-67
2022/03/01 01:19:49;;;;;;;11.05;1.42;;;21.40;99.90;;;;;;5031036;28;20033;-67
2022/03/01 01:25:01;;;;;;;9.18;1.52;;;21.60;99.90;;;;;;5032096;28;20083;-67
2022/03/01 01:27:29;;;;;;;9.10;2.17;;;21.80;99.90;;;;;;5031469;28;20029;-66
2022/03/01 01:29:56;;;;;;;12.82;1.73;;;21.80;99.90;;;;;;5032608;28;20026;-67
2022/03/01 01:32:23;;;;;;;13.75;2.03;;;21.50;99.90;;;;;;5031447;28;20140;-67
2022/03/01 01:34:52;;;;;;;10.93;2.00;;;21.50;99.90;;;;;;5032429;28;20493;-67
2022/03/01 01:37:20;;;;;;;13.07;1.90;;;21.30;99.90;;;;;;5027228;28;20029;-67
2022/03/01 01:39:47;;;;;;;15.30;2.53;;;21.40;99.90;;;;;;5028163;28;20041;-68
2022/03/01 01:42:14;;;;;;;14.85;2.15;;;21.40;99.90;;;;;;5033394;28;20029;-67
2022/03/01 01:44:44;;;;;;;15.90;2.58;;;21.50;99.90;;;;;;5040211;23;20099;-68
2022/03/01 01:47:11;;;;;;;11.77;1.83;;;21.30;99.90;;;;;;5002833;28;20034;-67
2022/03/01 01:49:39;;;;;;;10.80;1.65;;;21.30;99.90;;;;;;5013435;28;20123;-67
2022/03/01 01:52:06;;;;;;;19.20;2.83;;;21.30;99.90;;;;;;5032937;28;20057;-68
2022/03/01 01:54:34;;;;;;;12.48;2.17;;;21.50;99.90;;;;;;5005097;28;20026;-67
2022/03/01 01:57:01;;;;;;;16.10;2.33;;;21.80;99.90;;;;;;5010772;28;20105;-67
2022/03/01 01:59:28;;;;;;;17.50;2.75;;;21.90;99.90;;;;;;5012178;28;20478;-68
2022/03/01 02:01:55;;;;;;;21.58;2.97;;;21.80;99.90;;;;;;5012825;28;20026;-67
2022/03/01 02:04:23;;;;;;;11.52;2.10;;;22.00;99.90;;;;;;4993476;28;20461;-68
2022/03/01 02:06:55;;;;;;;11.90;1.95;;;22.10;99.90;;;;;;5013213;28;20113;-68
2022/03/01 02:09:22;;;;;;;16.50;2.17;;;22.20;99.90;;;;;;5024537;28;20033;-67
2022/03/01 02:11:49;;;;;;;12.57;1.60;;;22.20;99.90;;;;;;5032724;28;20056;-68
2022/03/01 02:14:17;;;;;;;10.13;2.22;;;22.20;99.90;;;;;;5031188;28;20029;-67
2022/03/01 02:16:44;;;;;;;10.93;2.10;;;22.40;99.90;;;;;;5032268;28;20060;-68
2022/03/01 02:19:15;;;;;;;10.85;1.90;;;22.60;99.90;;;;;;5019124;28;20034;-67
2022/03/01 02:21:50;;;;;;;18.10;2.08;;;22.60;99.90;;;;;;5001293;28;20509;-67
2022/03/01 02:24:19;;;;;;;14.50;2.85;;;22.60;99.90;;;;;;5002181;28;20101;-67
2022/03/01 02:26:47;;;;;;;15.50;2.58;;;22.60;99.90;;;;;;5008306;28;20390;-67
2022/03/01 02:29:14;;;;;;;14.55;1.88;;;22.40;99.90;;;;;;5014237;28;20228;-68
2022/03/01 02:31:41;;;;;;;11.15;1.38;;;22.10;99.90;;;;;;5016374;28;20026;-67
2022/03/01 02:34:09;;;;;;;14.30;1.63;;;21.90;99.90;;;;;;5015233;28;20101;-68
2022/03/01 02:36:36;;;;;;;9.82;1.42;;;21.60;99.90;;;;;;5010082;28;20494;-69
2022/03/01 02:39:04;;;;;;;9.48;1.58;;;21.70;99.90;;;;;;5012831;28;20490;-68
2022/03/01 02:41:31;;;;;;;11.48;1.40;;;21.80;99.90;;;;;;5013388;28;20474;-69
2022/03/01 02:43:58;;;;;;;9.13;1.17;;;21.70;99.90;;;;;;5014020;28;20116;-68
2022/03/01 02:46:26;;;;;;;9.27;1.80;;;21.40;99.90;;;;;;5029355;28;20042;-68
2022/03/01 02:48:53;;;;;;;16.30;2.78;;;21.50;99.90;;;;;;5030757;28;20040;-69
2022/03/01 02:51:20;;;;;;;14.13;2.55;;;21.40;99.90;;;;;;5033072;28;20030;-68
2022/03/01 02:53:47;;;;;;;13.63;2.08;;;21.40;99.90;;;;;;5029303;28;20116;-68
2022/03/01 02:56:15;;;;;;;12.23;1.52;;;21.20;99.90;;;;;;5037825;28;20033;-68
2022/03/01 02:58:42;;;;;;;8.70;1.83;;;21.10;99.90;;;;;;5032532;28;20029;-69
2022/03/01 03:01:09;;;;;;;15.60;2.38;;;21.10;99.90;;;;;;5027982;28;20052;-69
2022/03/01 03:03:37;;;;;;;11.05;1.65;;;21.10;99.90;;;;;;5025999;28;20022;-69
2022/03/01 03:06:04;;;;;;;12.80;1.48;;;21.10;99.90;;;;;;5033141;28;20097;-69
2022/03/01 03:08:32;;;;;;;17.77;3.70;;;21.00;99.90;;;;;;5033444;28;20048;-69
2022/03/01 03:11:00;;;;;;;15.18;1.52;;;20.90;99.90;;;;;;5029846;28;20553;-69
2022/03/01 03:13:27;;;;;;;18.83;2.13;;;21.10;99.90;;;;;;5031324;28;20071;-69
2022/03/01 03:15:55;;;;;;;11.52;1.75;;;21.10;99.90;;;;;;5033606;28;20037;-69
2022/03/01 03:18:22;;;;;;;15.20;2.17;;;21.20;99.90;;;;;;5025149;28;20116;-69
2022/03/01 03:20:49;;;;;;;17.55;3.08;;;21.30;99.90;;;;;;5032273;28;20032;-69
2022/03/01 03:23:16;;;;;;;13.52;2.10;;;21.50;99.90;;;;;;5006121;28;20088;-68
2022/03/01 03:25:44;;;;;;;11.88;2.22;;;21.40;99.90;;;;;;5033172;28;20100;-69
2022/03/01 03:28:11;;;;;;;12.10;2.05;;;21.40;99.90;;;;;;5014640;28;20461;-69
2022/03/01 03:30:41;;;;;;;15.30;2.72;;;21.50;99.90;;;;;;5031473;28;20052;-69
2022/03/01 03:33:09;;;;;;;15.60;2.03;;;21.70;99.90;;;;;;5023993;28;20045;-69
2022/03/01 03:35:36;;;;;;;16.27;2.35;;;21.80;99.90;;;;;;5033562;28;20482;-69
2022/03/01 03:38:07;;;;;;;18.30;2.80;;;21.70;99.90;;;;;;5028482;28;20029;-69
2022/03/01 03:40:35;;;;;;;13.68;2.17;;;21.70;99.90;;;;;;5031564;28;20032;-69
2022/03/01 03:43:02;;;;;;;13.60;1.88;;;21.70;99.90;;;;;;5031827;28;20544;-69
2022/03/01 03:45:29;;;;;;;12.00;1.60;;;21.60;99.90;;;;;;5028305;28;20041;-69
2022/03/01 03:47:57;;;;;;;11.18;2.25;;;21.50;99.90;;;;;;5005083;28;20022;-69
2022/03/01 03:50:24;;;;;;;9.25;1.67;;;21.30;99.90;;;;;;5025298;28;20021;-68
2022/03/01 03:52:51;;;;;;;12.63;2.05;;;21.20;99.90;;;;;;5029551;28;20084;-69
2022/03/01 03:55:18;;;;;;;7.70;1.30;;;21.20;99.90;;;;;;5033986;28;20123;-69
2022/03/01 03:57:46;;;;;;;9.80;1.10;;;21.00;99.90;;;;;;5030301;28;20121;-68
2022/03/01 04:00:16;;;;;;;10.20;1.08;;;20.60;99.90;;;;;;5030159;28;20017;-68
2022/03/01 04:02:51;;;;;;;11.00;1.30;;;20.50;99.90;;;;;;5032999;28;20029;-69
2022/03/01 04:05:18;;;;;;;10.23;1.40;;;20.50;99.90;;;;;;5028567;28;20100;-69
2022/03/01 04:07:48;;;;;;;11.15;1.20;;;20.50;99.90;;;;;;5034772;28;20047;-68
2022/03/01 04:10:16;;;;;;;11.30;2.13;;;20.50;99.90;;;;;;5028012;28;20503;-69
2022/03/01 04:12:43;;;;;;;11.70;1.67;;;20.70;99.90;;;;;;5025930;28;20080;-69
2022/03/01 04:15:11;;;;;;;13.02;1.95;;;20.80;99.90;;;;;;5031516;28;20029;-69
2022/03/01 04:17:40;;;;;;;15.93;2.08;;;20.80;99.90;;;;;;5031786;28;20032;-69
2022/03/01 04:20:09;;;;;;;20.42;3.72;;;20.80;99.90;;;;;;5031008;28;20040;-69
2022/03/01 04:22:37;;;;;;;16.17;2.47;;;20.90;99.90;;;;;;5032901;28;20025;-69
2022/03/01 04:25:08;;;;;;;15.02;2.85;;;20.90;99.90;;;;;;5026483;28;20029;-69
2022/03/01 04:27:35;;;;;;;18.73;2.42;;;20.90;99.90;;;;;;5032538;28;20416;-69
2022/03/01 04:30:03;;;;;;;21.63;3.20;;;20.90;99.90;;;;;;5013051;28;20076;-69
2022/03/01 04:32:30;;;;;;;25.63;2.88;;;21.00;99.90;;;;;;5028566;28;20086;-69
2022/03/01 04:34:57;;;;;;;23.83;3.17;;;21.20;99.90;;;;;;5029586;28;20067;-69
2022/03/01 04:37:25;;;;;;;21.45;3.40;;;21.20;99.90;;;;;;5028743;28;20029;-69
2022/03/01 04:39:52;;;;;;;17.45;3.58;;;21.20;99.90;;;;;;5031944;28;20060;-69
2022/03/01 04:42:19;;;;;;;23.63;3.05;;;21.30;99.90;;;;;;5027782;28;20021;-69
2022/03/01 04:44:47;;;;;;;23.27;3.10;;;21.30;99.90;;;;;;5028457;28;20029;-69
2022/03/01 04:47:15;;;;;;;23.38;2.92;;;21.40;99.90;;;;;;5028435;28;20124;-69
2022/03/01 04:49:42;;;;;;;24.60;3.30;;;21.40;99.90;;;;;;5026633;28;20025;-69
2022/03/01 04:52:09;;;;;;;17.98;2.67;;;21.40;99.90;;;;;;5026642;28;20342;-69
2022/03/01 04:54:37;;;;;;;19.38;2.33;;;21.50;99.90;;;;;;5031556;28;20025;-69
2022/03/01 04:57:04;;;;;;;23.83;3.50;;;21.50;99.90;;;;;;5021588;28;20029;-69
2022/03/01 04:59:32;;;;;;;16.25;2.08;;;21.70;99.90;;;;;;5027809;28;20482;-69
2022/03/01 05:01:59;;;;;;;16.58;2.75;;;21.80;99.90;;;;;;5026654;28;20060;-69
2022/03/01 05:04:27;;;;;;;15.30;2.45;;;21.80;99.90;;;;;;5008596;28;20397;-69
2022/03/01 05:06:54;;;;;;;22.88;2.67;;;21.90;99.90;;;;;;5006768;28;20041;-69
2022/03/01 05:09:22;;;;;;;14.52;2.15;;;22.00;99.90;;;;;;5018689;28;20041;-69
2022/03/01 05:11:50;;;;;;;12.27;1.65;;;22.00;99.90;;;;;;5017661;28;20030;-69
2022/03/01 05:14:19;;;;;;;7.88;1.45;;;22.00;99.90;;;;;;5030869;28;20551;-69
2022/03/01 05:16:47;;;;;;;17.35;1.85;;;22.00;99.90;;;;;;5027670;28;20113;-69
2022/03/01 05:19:15;;;;;;;19.00;2.35;;;22.00;99.90;;;;;;5030266;28;20029;-69
2022/03/01 05:21:42;;;;;;;9.95;1.48;;;22.00;99.90;;;;;;5029545;28;20390;-69
2022/03/01 05:24:10;;;;;;;17.52;1.90;;;22.10;99.90;;;;;;5026130;28;20029;-69
2022/03/01 05:26:38;;;;;;;16.70;1.85;;;22.10;99.90;;;;;;5029881;28;20034;-69
2022/03/01 05:29:07;;;;;;;14.95;2.13;;;22.10;99.90;;;;;;5029810;28;20029;-69
2022/03/01 05:31:34;;;;;;;11.75;1.50;;;22.10;99.90;;;;;;5032606;28;20398;-69
2022/03/01 05:34:02;;;;;;;16.48;2.20;;;22.00;99.90;;;;;;5013594;28;20021;-69
2022/03/01 05:36:29;;;;;;;10.70;1.85;;;22.10;99.90;;;;;;5012915;28;20033;-69
2022/03/01 05:38:56;;;;;;;13.13;1.80;;;22.10;99.90;;;;;;5022141;28;20087;-69
2022/03/01 05:41:24;;;;;;;11.25;1.70;;;22.20;99.90;;;;;;5028786;28;20025;-69
2022/03/01 05:43:51;;;;;;;15.43;2.08;;;22.20;99.90;;;;;;5031301;28;20470;-69
2022/03/01 05:46:18;;;;;;;13.50;1.85;;;22.20;99.90;;;;;;5026779;28;20087;-69
2022/03/01 05:48:46;;;;;;;16.00;3.15;;;22.20;99.90;;;;;;5032007;28;20018;-69
2022/03/01 05:51:14;;;;;;;11.65;1.60;;;22.20;99.90;;;;;;5031440;28;20025;-69
2022/03/01 05:53:41;;;;;;;10.77;2.45;;;22.20;99.90;;;;;;5023218;28;20022;-68
2022/03/01 05:56:09;;;;;;;11.95;1.80;;;22.20;99.90;;;;;;5030179;28;20021;-69
2022/03/01 05:58:36;;;;;;;18.17;2.05;;;22.10;99.90;;;;;;5021350;28;20509;-69
2022/03/01 06:01:03;;;;;;;14.13;2.15;;;22.10;99.90;;;;;;5021203;28;20033;-69
2022/03/01 06:03:30;;;;;;;13.57;2.33;;;22.10;99.90;;;;;;5011344;28;20025;-69
2022/03/01 06:05:58;;;;;;;15.95;2.75;;;22.20;99.90;;;;;;5034733;28;20067;-69
2022/03/01 06:08:25;;;;;;;13.77;2.53;;;22.20;99.90;;;;;;5028637;28;20032;-69
2022/03/01 06:10:52;;;;;;;19.35;2.72;;;22.30;99.90;;;;;;5032551;28;20106;-69
2022/03/01 06:13:20;;;;;;;12.68;1.95;;;22.30;99.90;;;;;;5018276;28;20036;-69
2022/03/01 06:15:48;;;;;;;13.38;2.05;;;22.30;99.90;;;;;;5027943;28;20058;-69
2022/03/01 06:18:16;;;;;;;15.65;1.92;;;22.30;99.90;;;;;;5019373;28;20049;-69
2022/03/01 06:20:44;;;;;;;18.05;2.65;;;22.30;99.90;;;;;;5029294;28;20030;-69
2022/03/01 06:23:11;;;;;;;16.05;2.30;;;22.30;99.90;;;;;;5028766;28;20026;-69
2022/03/01 06:25:40;;;;;;;14.98;3.03;;;22.40;99.90;;;;;;5034522;28;20025;-69
2022/03/01 06:28:08;;;;;;;15.85;2.08;;;22.40;99.90;;;;;;5028952;28;20018;-69
2022/03/01 06:30:36;;;;;;;16.35;2.38;;;22.00;99.90;;;;;;5026025;28;20057;-69
2022/03/01 06:33:04;;;;;;;24.45;3.10;;;21.60;99.90;;;;;;5030313;28;20516;-69
2022/03/01 06:35:31;;;;;;;15.32;2.92;;;21.20;99.90;;;;;;5022255;28;20033;-68
2022/03/01 06:37:58;;;;;;;11.23;2.33;;;21.10;99.90;;;;;;5025951;28;20033;-69
2022/03/01 06:40:28;;;;;;;13.05;2.33;;;20.90;99.90;;;;;;5032606;28;20026;-69
2022/03/01 06:42:56;;;;;;;13.45;2.42;;;20.90;99.90;;;;;;5032640;28;20026;-68
2022/03/01 06:45:23;;;;;;;14.57;1.98;;;20.80;99.90;;;;;;5028559;28;20046;-68
2022/03/01 06:47:50;;;;;;;16.50;2.22;;;20.70;99.90;;;;;;5014915;28;20087;-68
2022/03/01 06:50:18;;;;;;;12.00;1.73;;;20.80;99.90;;;;;;5032515;28;20477;-68
2022/03/01 06:52:45;;;;;;;15.27;2.10;;;20.90;99.90;;;;;;5027651;28;20052;-68
2022/03/01 06:55:13;;;;;;;14.65;2.65;;;21.00;99.90;;;;;;5031886;28;20790;-68
2022/03/01 06:57:41;;;;;;;12.48;2.05;;;21.00;99.90;;;;;;5033398;28;20040;-66
2022/03/01 07:00:10;;;;;;;10.48;1.90;;;21.10;99.90;;;;;;5026689;28;20389;-66
2022/03/01 07:02:38;;;;;;;15.90;1.92;;;21.20;99.90;;;;;;5031936;28;20104;-66
2022/03/01 07:05:11;;;;;;;11.88;1.77;;;21.10;99.90;;;;;;5029489;28;20056;-66
2022/03/01 07:07:39;;;;;;;10.45;1.98;;;21.10;99.90;;;;;;5029296;28;20029;-66
2022/03/01 07:10:08;;;;;;;13.32;2.20;;;21.20;99.90;;;;;;5030953;28;20046;-67
2022/03/01 07:12:36;;;;;;;15.00;2.15;;;21.20;99.90;;;;;;5034038;28;20025;-66
2022/03/01 07:15:05;;;;;;;11.93;1.92;;;21.30;99.90;;;;;;5030541;28;20029;-67
2022/03/01 07:17:32;;;;;;;9.40;1.70;;;21.30;99.90;;;;;;5029433;28;20108;-67
2022/03/01 07:20:00;;;;;;;11.15;1.75;;;21.30;99.90;;;;;;5014782;28;20038;-66
2022/03/01 07:22:27;;;;;;;8.48;1.77;;;21.30;99.90;;;;;;5030352;28;20385;-66
2022/03/01 07:24:54;;;;;;;12.00;1.58;;;21.30;99.90;;;;;;5030817;28;20045;-66
2022/03/01 07:27:22;;;;;;;15.48;1.95;;;21.40;99.90;;;;;;5034153;28;20037;-66
2022/03/01 07:29:49;;;;;;;13.57;2.72;;;21.40;99.90;;;;;;5033423;28;20485;-66
2022/03/01 07:32:16;;;;;;;15.52;1.80;;;21.40;99.90;;;;;;5033747;28;20036;-66
2022/03/01 07:34:44;;;;;;;9.98;1.40;;;21.50;99.90;;;;;;5033975;28;20096;-66
2022/03/01 07:37:11;;;;;;;12.68;2.38;;;21.50;99.90;;;;;;5033442;28;20382;-67
2022/03/01 07:39:39;;;;;;;12.07;2.40;;;21.50;99.90;;;;;;5033783;28;20392;-67
2022/03/01 07:42:06;;;;;;;14.02;1.50;;;21.60;99.90;;;;;;5019532;28;20437;-66
2022/03/01 07:44:37;;;;;;;16.95;2.50;;;21.50;99.90;;;;;;5039848;22;20453;-66
2022/03/01 07:47:08;;;;;;;11.77;2.13;;;21.50;99.90;;;;;;5030547;28;20032;-67
2022/03/01 07:49:36;;;;;;;11.15;1.92;;;21.50;99.90;;;;;;5032344;28;20029;-67
2022/03/01 07:52:03;;;;;;;13.27;1.70;;;21.50;99.90;;;;;;5032039;28;20075;-66
2022/03/01 07:54:31;;;;;;;8.32;1.42;;;21.50;99.90;;;;;;5032944;28;20028;-66
2022/03/01 07:56:58;;;;;;;13.18;1.42;;;21.00;99.90;;;;;;5034068;28;20037;-66
2022/03/01 07:59:25;;;;;;;9.93;1.65;;;20.70;99.90;;;;;;5036170;28;20014;-66
2022/03/01 08:01:54;;;;;;;13.52;2.08;;;20.60;99.90;;;;;;5033275;28;20029;-66
2022/03/01 08:04:21;;;;;;;16.98;2.47;;;20.30;99.90;;;;;;5023103;28;20025;-67
2022/03/01 08:06:49;;;;;;;15.25;2.35;;;20.30;99.90;;;;;;5033669;28;20075;-67
2022/03/01 08:09:16;;;;;;;15.63;2.40;;;20.30;99.90;;;;;;5034264;28;20029;-67
2022/03/01 08:11:44;;;;;;;21.85;3.03;;;20.30;99.90;;;;;;5035138;28;20061;-66
2022/03/01 08:14:11;;;;;;;23.90;3.83;;;20.30;99.90;;;;;;5033575;28;20391;-66
2022/03/01 08:16:38;;;;;;;19.15;2.80;;;20.40;99.90;;;;;;5032683;28;20061;-66
2022/03/01 08:19:06;;;;;;;27.35;4.30;;;20.40;99.90;;;;;;5033086;28;20026;-66
2022/03/01 08:21:33;;;;;;;18.92;2.28;;;20.40;99.90;;;;;;5034469;28;20026;-66
2022/03/01 08:24:01;;;;;;;17.88;3.08;;;20.40;99.90;;;;;;5033059;28;20514;-65
2022/03/01 08:26:28;;;;;;;19.52;2.53;;;20.50;99.90;;;;;;5031533;28;20459;-66
2022/03/01 08:28:56;;;;;;;15.32;3.17;;;20.50;99.90;;;;;;5032292;28;20108;-66
2022/03/01 08:31:23;;;;;;;23.55;3.80;;;20.60;99.90;;;;;;5033544;28;20101;-66
2022/03/01 08:33:50;;;;;;;17.65;2.70;;;20.60;99.90;;;;;;5034102;28;20389;-65
2022/03/01 08:36:17;;;;;;;19.40;2.67;;;20.70;99.90;;;;;;5035938;28;20107;-65
2022/03/01 08:38:45;;;;;;;16.40;2.55;;;20.60;99.90;;;;;;5034851;28;20025;-65
2022/03/01 08:41:12;;;;;;;16.55;2.90;;;20.70;99.90;;;;;;5034764;28;20432;-65
2022/03/01 08:43:39;;;;;;;11.75;1.88;;;20.70;99.90;;;;;;5034153;28;20042;-65
2022/03/01 08:46:09;;;;;;;20.75;2.65;;;20.80;99.90;;;;;;5037090;28;20112;-65
2022/03/01 08:48:37;;;;;;;10.02;1.60;;;20.80;99.90;;;;;;5036217;28;20022;-65
2022/03/01 08:51:04;;;;;;;14.73;1.95;;;20.80;99.90;;;;;;5035325;28;20490;-65
2022/03/01 08:53:33;;;;;;;12.75;1.95;;;20.80;99.90;;;;;;5035732;28;20053;-65
2022/03/01 08:56:01;;;;;;;13.52;2.03;;;20.80;99.90;;;;;;5035042;28;20040;-65
2022/03/01 08:58:28;;;;;;;12.20;1.73;;;20.70;99.90;;;;;;5032925;28;20022;-65
2022/03/01 09:00:55;;;;;;;15.40;1.98;;;20.60;99.90;;;;;;5033620;28;20053;-65
2022/03/01 09:03:26;;;;;;;20.02;2.42;;;20.60;99.90;;;;;;5034022;28;20029;-65
2022/03/01 09:05:53;;;;;;;13.95;1.95;;;20.70;99.90;;;;;;5034668;28;20025;-65
2022/03/01 09:08:20;;;;;;;11.63;2.08;;;20.60;99.90;;;;;;5033987;28;20032;-65
2022/03/01 09:10:48;;;;;;;18.00;2.35;;;20.70;99.90;;;;;;5032700;28;20056;-65
2022/03/01 09:13:15;;;;;;;13.57;2.10;;;20.70;99.90;;;;;;5033466;28;20017;-65
2022/03/01 09:15:43;;;;;;;13.75;1.95;;;20.80;99.90;;;;;;5014867;28;20025;-66
2022/03/01 09:18:13;;;;;;;17.98;2.88;;;20.80;99.90;;;;;;5032960;28;20440;-66
2022/03/01 09:20:40;;;;;;;14.38;2.13;;;20.80;99.90;;;;;;5030684;28;20037;-66
2022/03/01 09:23:11;;;;;;;13.80;2.53;;;20.80;99.90;;;;;;5013710;28;20029;-66
2022/03/01 09:25:41;;;;;;;16.05;3.50;;;20.80;99.90;;;;;;5003829;28;20087;-66
2022/03/01 09:28:11;;;;;;;15.38;2.75;;;20.90;99.90;;;;;;5032516;28;20033;-66
2022/03/01 09:30:39;;;;;;;12.43;1.95;;;20.80;99.90;;;;;;5031786;28;20171;-66
2022/03/01 09:33:06;;;;;;;11.07;2.00;;;20.90;99.90;;;;;;5031473;28;20525;-66
2022/03/01 09:35:34;;;;;;;17.90;2.83;;;21.00;99.90;;;;;;5031450;28;20501;-66
2022/03/01 09:38:01;;;;;;;17.17;2.20;;;21.00;99.90;;;;;;5003335;28;20370;-66
2022/03/01 09:40:28;;;;;;;15.43;1.80;;;21.00;99.90;;;;;;5012888;28;20570;-66
2022/03/01 09:42:56;;;;;;;15.73;2.00;;;20.90;99.90;;;;;;5031653;28;20045;-65
2022/03/01 09:45:23;;;;;;;12.18;1.67;;;20.90;99.90;;;;;;5032298;28;20018;-67
2022/03/01 09:47:59;;;;;;;11.70;1.60;;;20.90;99.90;;;;;;5031345;28;20386;-66
2022/03/01 09:50:30;;;;;;;11.77;2.03;;;21.00;99.90;;;;;;5027985;28;20029;-66
2022/03/01 09:53:02;;;;;;;14.48;2.20;;;21.10;99.90;;;;;;5030971;28;20080;-65
2022/03/01 09:55:29;;;;;;;13.27;1.95;;;21.10;99.90;;;;;;5031044;28;20414;-66
2022/03/01 09:57:57;;;;;;;13.70;1.67;;;21.10;99.90;;;;;;5011325;28;20040;-66
2022/03/01 10:00:25;;;;;;;10.82;2.00;;;21.10;99.90;;;;;;5032446;28;20029;-67
2022/03/01 10:02:58;;;;;;;10.60;1.67;;;21.10;99.90;;;;;;5030180;28;20026;-67
2022/03/01 10:05:34;;;;;;;10.90;1.55;;;21.10;99.90;;;;;;5030726;28;20051;-67
2022/03/01 10:08:14;;;;;;;14.57;1.92;;;21.10;99.90;;;;;;5031557;28;20064;-67
2022/03/01 10:10:50;;;;;;;12.55;2.22;;;21.20;99.90;;;;;;5028427;28;20393;-68
2022/03/01 10:13:24;;;;;;;11.82;1.45;;;21.20;99.90;;;;;;5028474;28;20381;-68
2022/03/01 10:16:03;;;;;;;9.05;1.10;;;21.20;99.90;;;;;;5024893;28;20130;-68
2022/03/01 10:18:36;;;;;;;8.63;1.60;;;21.20;99.90;;;;;;5024493;28;20028;-68
2022/03/01 10:21:14;;;;;;;8.45;1.13;;;21.20;99.90;;;;;;5028624;28;20039;-68
2022/03/01 10:23:51;;;;;;;9.75;2.03;;;21.20;99.90;;;;;;5030021;28;20533;-68
2022/03/01 10:26:22;;;;;;;12.75;1.98;;;21.20;99.90;;;;;;5026428;28;20055;-68
2022/03/01 10:28:51;;;;;;;21.25;2.28;;;21.20;99.90;;;;;;5012840;28;20072;-68
2022/03/01 10:31:28;;;;;;;11.38;1.40;;;21.20;99.90;;;;;;5029764;28;20043;-67
2022/03/01 10:34:02;;;;;;;9.32;1.67;;;21.20;99.90;;;;;;5012365;28;20439;-67
2022/03/01 10:36:30;;;;;;;;;;;21.30;99.90;;;;;;5013513;28;20434;-68
2022/03/01 10:39:12;;;;;;;13.52;1.88;;;21.40;99.90;;;;;;5010842;28;19976;-68
2022/03/01 10:41:44;;;;;;;9.95;1.52;;;21.40;99.90;;;;;;5029315;28;20025;-67
2022/03/01 10:44:22;;;;;;;12.50;1.52;;;21.40;99.90;;;;;;5023250;28;20046;-67
2022/03/01 10:46:55;;;;;;;10.68;2.13;;;21.40;99.90;;;;;;5030280;28;20474;-67
2022/03/01 10:49:25;;;;;;;13.40;2.17;;;21.30;99.90;;;;;;5028517;28;20084;-68
2022/03/01 10:51:54;;;;;;;12.05;1.35;;;21.20;99.90;;;;;;5032948;28;20029;-67
2022/03/01 10:54:39;;;;;;;7.68;0.95;;;21.10;99.90;;;;;;5034742;28;20029;-68
2022/03/01 10:57:12;;;;;;;7.07;1.15;;;21.10;99.90;;;;;;5030745;28;20026;-68
2022/03/01 10:59:40;;;;;;;8.40;1.48;;;21.10;99.90;;;;;;5033160;28;20025;-68
2022/03/01 11:02:08;;;;;;;5.65;0.85;;;21.00;99.90;;;;;;5035273;28;20026;-68
2022/03/01 11:04:36;;;;;;;19.52;2.35;;;21.00;99.90;;;;;;5032044;28;20406;-68
2022/03/01 11:07:05;;;;;;;10.48;1.63;;;21.10;99.90;;;;;;5039911;28;20091;-67
2022/03/01 11:09:34;;;;;;;6.88;0.90;;;21.10;99.90;;;;;;5033382;28;20541;-68
2022/03/01 11:12:03;;;;;;;11.70;1.40;;;21.10;99.90;;;;;;5034071;28;20021;-68
2022/03/01 11:14:47;;;;;;;9.55;1.48;;;21.10;99.90;;;;;;5040067;28;20022;-68
2022/03/01 11:17:41;;;;;;;13.95;2.10;;;21.10;99.90;;;;;;5016030;28;20025;-68
2022/03/01 11:20:15;;;;;;;14.48;1.58;;;21.10;99.90;;;;;;5032303;28;20021;-68
2022/03/01 11:22:49;;;;;;;16.25;1.88;;;21.10;99.90;;;;;;5034488;28;20021;-68
2022/03/01 11:25:23;;;;;;;;;;;21.10;99.90;;;;;;5024508;28;20464;-68
2022/03/01 11:27:53;;;;;;;14.27;2.58;;;21.10;99.90;;;;;;5029285;28;19916;-68
2022/03/01 11:30:41;;;;;;;14.85;2.17;;;21.20;99.90;;;;;;5032767;28;20036;-68
2022/03/01 11:33:10;;;;;;;12.95;1.67;;;21.20;99.90;;;;;;5015755;28;20989;-68
2022/03/01 11:35:42;;;;;;;13.80;2.92;;;21.20;99.90;;;;;;5032582;28;20371;-68
2022/03/01 11:38:14;;;;;;;22.15;3.28;;;21.20;99.90;;;;;;5025867;28;20030;-68
2022/03/01 11:40:45;;;;;;;14.90;2.35;;;21.30;99.90;;;;;;5033812;28;20406;-68
2022/03/01 11:43:26;;;;;;;14.55;2.50;;;21.30;99.90;;;;;;5030135;28;20056;-68
2022/03/01 11:45:58;;;;;;;19.10;2.25;;;21.30;99.90;;;;;;5029858;28;20079;-68
2022/03/01 11:48:29;;;;;;;9.98;1.73;;;21.30;99.90;;;;;;5034781;28;20032;-68
2022/03/01 11:51:05;;;;;;;8.15;1.23;;;21.40;99.90;;;;;;5026590;28;20096;-68
2022/03/01 11:53:37;;;;;;;12.10;2.08;;;21.40;99.90;;;;;;5033642;28;20377;-68
2022/03/01 11:56:07;;;;;;;11.50;2.08;;;21.40;99.90;;;;;;5012684;28;20559;-68
2022/03/01 11:58:36;;;;;;;12.55;2.00;;;21.40;99.90;;;;;;5028461;28;20013;-68
2022/03/01 12:01:10;;;;;;;16.25;2.50;;;21.40;99.90;;;;;;5030222;28;20087;-68
2022/03/01 12:03:40;;;;;;;16.45;2.70;;;21.30;99.90;;;;;;5036997;28;20030;-68
2022/03/01 12:06:08;;;;;;;11.43;2.05;;;21.30;99.90;;;;;;5033422;28;20025;-68
2022/03/01 12:08:39;;;;;;;14.35;2.10;;;21.30;99.90;;;;;;5027955;28;20058;-68
2022/03/01 12:11:08;;;;;;;13.68;2.38;;;21.30;99.90;;;;;;5032606;28;20030;-68
2022/03/01 12:13:40;;;;;;;17.55;1.90;;;21.30;99.90;;;;;;5033058;28;20025;-68
2022/03/01 12:16:09;;;;;;;12.80;1.85;;;21.20;99.90;;;;;;5028928;28;20116;-68
2022/03/01 12:18:39;;;;;;;17.60;2.95;;;21.20;99.90;;;;;;5025981;28;20056;-68
2022/03/01 12:21:12;;;;;;;13.38;1.77;;;21.20;99.90;;;;;;5032080;28;20447;-68
2022/03/01 12:23:43;;;;;;;15.43;2.70;;;21.20;99.90;;;;;;5033250;28;20022;-68
2022/03/01 12:26:13;;;;;;;11.48;2.67;;;21.20;99.90;;;;;;5032878;28;20104;-68
2022/03/01 12:28:46;;;;;;;13.25;2.70;;;21.20;99.90;;;;;;5030179;28;20095;-68
2022/03/01 12:31:26;;;;;;;15.25;2.53;;;21.20;99.90;;;;;;5032955;28;20037;-68
2022/03/01 12:33:56;;;;;;;17.25;2.53;;;21.10;99.90;;;;;;5033426;28;20040;-68
2022/03/01 12:36:29;;;;;;;17.65;2.67;;;21.00;99.90;;;;;;5031913;28;20026;-68
2022/03/01 12:39:00;;;;;;;15.13;2.58;;;21.00;99.90;;;;;;5027426;28;20036;-68
2022/03/01 12:41:28;;;;;;;20.70;3.80;;;21.00;99.90;;;;;;5044178;28;20052;-68
2022/03/01 12:44:01;;;;;;;18.00;2.35;;;21.00;99.90;;;;;;5031419;28;20049;-68
2022/03/01 12:46:29;;;;;;;10.88;2.67;;;20.90;99.90;;;;;;5032689;28;20072;-68
2022/03/01 12:48:57;;;;;;;17.33;2.42;;;20.90;99.90;;;;;;5032299;28;20033;-68